createdAt,value
2023-02-13T00:01:47.892Z,4.02
2023-02-13T00:12:00.965Z,3.99
2023-02-13T00:22:13.906Z,4.00
2023-02-13T00:32:26.970Z,3.94
2023-02-13T00:42:39.933Z,3.98
2023-02-13T00:52:52.969Z,4.00
2023-02-13T01:03:05.952Z,4.07
2023-02-13T01:13:18.987Z,4.13
2023-02-13T01:23:31.970Z,4.19
2023-02-13T01:33:44.987Z,4.22
2023-02-13T01:44:09.008Z,4.13
2023-02-13T01:54:25.986Z,4.18
2023-02-13T02:04:43.973Z,4.24
2023-02-13T02:14:57.035Z,4.27
2023-02-13T02:25:39.979Z,4.35
2023-02-13T02:36:07.050Z,4.27
2023-02-13T02:46:26.038Z,4.39
2023-02-13T02:56:58.044Z,4.39
2023-02-13T03:07:14.039Z,4.40
2023-02-13T03:17:45.066Z,4.44
2023-02-13T03:28:26.100Z,4.38
2023-02-13T03:39:20.048Z,4.58
2023-02-13T03:49:57.071Z,4.51
2023-02-13T04:00:18.051Z,4.58
2023-02-13T04:10:33.076Z,4.53
2023-02-13T04:20:46.082Z,4.63
2023-02-13T04:30:59.441Z,4.49
2023-02-13T04:41:13.099Z,4.59
2023-02-13T04:51:26.118Z,4.56
2023-02-13T05:01:45.184Z,4.41
2023-02-13T05:12:02.148Z,4.46
2023-02-13T05:22:35.099Z,4.49
2023-02-13T05:32:50.125Z,4.56
2023-02-13T05:43:03.099Z,4.55
2023-02-13T05:53:16.153Z,4.49
2023-02-13T06:03:36.257Z,4.50
2023-02-13T06:13:49.176Z,4.40
2023-02-13T06:24:02.154Z,4.32
2023-02-13T06:34:16.169Z,4.41
2023-02-13T06:44:29.189Z,4.22
2023-02-13T06:54:47.731Z,4.02
2023-02-13T07:05:01.184Z,4.34
2023-02-13T07:15:15.202Z,4.76
2023-02-13T07:25:28.189Z,5.22
2023-02-13T07:35:41.217Z,5.03
2023-02-13T07:45:54.296Z,7.10
2023-02-13T07:56:07.245Z,6.70
2023-02-13T08:06:20.215Z,7.28
2023-02-13T08:16:33.292Z,7.01
2023-02-13T08:26:46.236Z,7.13
2023-02-13T08:36:59.241Z,6.77
2023-02-13T08:47:12.228Z,6.63
2023-02-13T08:57:25.263Z,6.93
2023-02-13T09:07:38.237Z,6.90
2023-02-13T09:17:51.261Z,6.73
2023-02-13T09:28:04.278Z,7.04
2023-02-13T09:38:16.309Z,7.06
2023-02-13T09:48:42.284Z,7.42
2023-02-13T09:59:30.285Z,7.55
2023-02-13T10:10:10.324Z,7.61
2023-02-13T10:20:40.311Z,7.50
2023-02-13T10:31:01.422Z,7.01
2023-02-13T10:41:29.292Z,7.26
2023-02-13T10:51:53.346Z,7.23
2023-02-13T11:02:25.336Z,7.07
2023-02-13T11:12:39.346Z,6.85
2023-02-13T11:22:52.386Z,7.20
2023-02-13T11:33:12.361Z,7.15
2023-02-13T11:43:32.369Z,7.44
2023-02-13T11:53:47.358Z,7.63
2023-02-13T12:04:24.386Z,7.37
2023-02-13T12:14:50.368Z,7.24
2023-02-13T12:25:21.412Z,7.25
2023-02-13T12:35:43.397Z,7.39
2023-02-13T12:46:17.471Z,7.37
2023-02-13T12:56:52.379Z,7.14
2023-02-13T13:07:32.437Z,6.86
2023-02-13T13:18:29.407Z,6.97
2023-02-13T13:28:46.462Z,6.84
2023-02-13T13:39:29.420Z,6.90
2023-02-13T13:49:52.125Z,6.97
2023-02-13T14:00:15.452Z,7.01
2023-02-13T14:10:28.470Z,7.19
2023-02-13T14:20:59.746Z,7.15
2023-02-13T14:31:24.704Z,6.84
2023-02-13T14:41:59.454Z,6.55
2023-02-13T14:52:14.495Z,6.26
2023-02-13T15:02:32.503Z,6.08
2023-02-13T15:12:45.512Z,6.23
2023-02-13T15:22:58.491Z,6.19
2023-02-13T15:33:32.522Z,6.29
2023-02-13T15:43:46.517Z,6.18
2023-02-13T15:54:05.543Z,5.95
2023-02-13T16:04:21.504Z,5.75
2023-02-13T16:14:35.575Z,5.65
2023-02-13T16:24:53.515Z,5.61
2023-02-13T16:35:43.586Z,5.58
2023-02-13T16:46:03.588Z,5.37
2023-02-13T16:56:18.643Z,5.36
2023-02-13T17:06:32.543Z,5.32
2023-02-13T17:16:45.671Z,5.26
2023-02-13T17:26:58.583Z,5.19
2023-02-13T17:37:11.627Z,5.24
2023-02-13T17:47:24.612Z,5.30
2023-02-13T17:57:37.700Z,5.19
2023-02-13T18:07:56.600Z,5.36
2023-02-13T18:18:09.617Z,5.22
2023-02-13T18:28:22.603Z,5.23
2023-02-13T18:38:36.824Z,5.29
2023-02-13T18:48:49.596Z,5.35
2023-02-13T18:59:02.955Z,5.37
2023-02-13T19:09:16.641Z,5.30
2023-02-13T19:19:29.803Z,5.26
2023-02-13T19:29:42.637Z,5.39
2023-02-13T19:39:55.928Z,5.32
2023-02-13T19:50:07.700Z,5.36
2023-02-13T20:00:20.946Z,5.46
2023-02-13T20:10:33.677Z,5.43
2023-02-13T20:20:49.716Z,5.47
2023-02-13T20:31:03.509Z,5.48
2023-02-13T20:41:21.715Z,5.46
2023-02-13T20:51:35.161Z,5.57
2023-02-13T21:01:54.713Z,5.58
2023-02-13T21:12:07.733Z,5.61
2023-02-13T21:22:20.743Z,5.46
2023-02-13T21:32:33.754Z,5.49
2023-02-13T21:42:46.762Z,5.38
2023-02-13T21:52:59.752Z,5.38
2023-02-13T22:03:18.761Z,5.47
2023-02-13T22:13:31.805Z,5.38
2023-02-13T22:23:44.760Z,5.36
2023-02-13T22:34:04.038Z,5.35
2023-02-13T22:44:17.778Z,5.40
2023-02-13T22:54:30.786Z,5.31
2023-02-13T23:04:50.824Z,5.28
2023-02-13T23:15:04.786Z,5.18
2023-02-13T23:25:17.825Z,5.18
2023-02-13T23:35:30.791Z,5.22
2023-02-13T23:45:43.846Z,5.15
2023-02-13T23:55:56.799Z,5.15
